Create Custom Reports and Graphics: Custom Report

Siberia 8700'

Squaw Valley

5/5/21 6:30 PM (-07:00)
Updated Every 15 Minutes
Temp 54.6 °F   4.6
RH 54 %   5
Wet Bulb 45.7 °F   4.8
Dew Pt 38.3 °F   6.4
Wind Dir WSW | 250 °
Wind Spd 20.7 mph   0.9
Wind Gust 26.5 mph   0.5
WindChill 52.6 °F   8.0
Daily Min Temp 41.8 °F   1.0
Daily Max Temp 59.9 °F   4.1

Last 24 Hours

Squaw-Siberia 8700'

Hourly Data | America/Los_Angeles
as of 5/5/21 6:44 PM PDT
Date & Time Temp (°F) RH (%) Dew Pt (°F) Wet Bulb (°F) Wind Dir (°) Wind Spd (mph) Wind Gust (mph) WindChill (°F) Daily Min Temp (°F) Daily Max Temp (°F)
5/5/21 - 1800 56.4 50 38.2 46.4 WSW | 248 20.7 30.7 56.4 41.8 59.9
5/5/21 - 1700 57.6 45 36.2 46.0 WSW | 252 21.2 33.7 57.5 41.8 59.9
5/5/21 - 1600 58.5 42 35.7 46.2 WSW | 252 21.4 32.6 58.2 41.8 59.9
5/5/21 - 1500 59.4 37 32.9 45.5 W | 261 21.1 29.6 58.5 41.8 59.7
5/5/21 - 1400 57.6 33 29.0 43.3 WSW | 257 17.5 27.0 57.7 41.8 59.3
5/5/21 - 1300 57.3 34 28.9 43.1 WSW | 245 9.4 20.8 56.4 41.8 58.6
5/5/21 - 1200 55.9 34 27.6 42.1 ESE | 122 3.5 9.7 50.4 41.8 56.2
5/5/21 - 1100 47.9 47 28.8 38.8 NE | 56 8.5 19.1 42.5 41.8 47.9
5/5/21 - 1000 45.4 49 27.2 37.0 ENE | 64 9.5 18.5 39.7 41.8 47.1
5/5/21 - 0900 44.1 49 26.2 35.9 ENE | 70 7.8 13.0 39.1 41.8 47.1
5/5/21 - 0800 43.1 50 25.7 35.3 ENE | 77 10.9 16.9 37.0 41.8 47.1
5/5/21 - 0700 42.6 49 24.7 34.7 E | 95 12.4 17.1 36.4 41.8 47.1
5/5/21 - 0600 42.8 49 24.8 34.9 NE | 52 6.9 15.4 38.4 41.8 47.1
5/5/21 - 0500 42.3 58 28.5 35.9 NE | 40 11.1 20.6 37.0 42.0 47.1
5/5/21 - 0400 43.5 62 31.2 37.6 ENE | 60 19.2 30.1 36.9 43.5 47.1
5/5/21 - 0300 46.0 52 29.5 38.1 ENE | 67 18.1 24.0 39.0 45.6 47.1
5/5/21 - 0200 45.8 53 29.7 38.1 NE | 53 12.4 20.1 40.7 45.6 47.1
5/5/21 - 0100 45.8 55 30.7 38.5 ENE | 77 8.4 12.8 42.4 45.6 47.1
5/5/21 - 0000 47.1 46 27.3 37.9 E | 84 4.4 9.8 45.3 40.8 55.7
5/4/21 - 2300 47.6 41 24.9 37.3 E | 86 5.5 9.5 45.5 40.8 55.7
5/4/21 - 2200 48.0 23 11.8 34.0 WSW | 247 - 0.3 47.1 40.8 55.7
5/4/21 - 2100 46.2 50 28.5 37.9 W | 269 10.5 18.2 40.5 40.8 55.7
5/4/21 - 2000 46.4 59 32.8 39.6 W | 260 16.8 23.3 42.3 40.8 55.7
5/4/21 - 1900 50.2 51 32.7 41.3 WSW | 247 19.7 27.1 44.8 40.8 55.7
5/4/21 - 1800 51.4 49 32.7 41.9 WSW | 258 22.3 34.6 46.4 40.8 55.7
Max 59.4 62 38.2 46.4 - 22.3 34.6 58.5 45.6 59.9
Avg 49.2 47 29.0 39.5 - 13.3 20.6 45.4 - -
Min 42.3 23 11.8 34.0 - 3.5 0.3 36.4 40.8 47.1

Last 30 Days

Squaw-Siberia 8700'

Daily Data | America/Los_Angeles
as of 5/5/21 6:44 PM PDT
Date Daily Max Temp (°F) Time of Max Temp Daily Min Temp (°F) Time of Min Temp Wind Spd (mph) Daily Max Wind (mph) Time of Max Wind Max Wind Dir (°) Wet Bulb (°F) WetB Hrs <28F (hrs)
5/4/21 55.7 1500 40.8 0048 11.2 38.8 1440 SSW | 210 36.6 0.0
5/3/21 47.1 1508 27.6 0619 19.3 44.6 0808 ENE | 58 30.5 6.4
5/2/21 42.2 1520 30.1 0731 13.3 37.1 2212 ENE | 69 32.1 0.0
5/1/21 49.2 1356 35.1 2153 30.2 55.7 0432 SW | 226 33.3 0.0
4/30/21 59.0 1450 44.2 2345 22.5 41.8 1140 SSW | 212 38.4 0.0
4/29/21 63.7 1434 39.0 0108 17.6 47.0 0340 E | 80 38.8 0.0
4/28/21 53.5 1644 26.1 0530 15.1 47.2 0103 ENE | 73 28.9 10.2
4/27/21 31.7 1642 18.7 0253 27.1 54.4 0855 ESE | 119 23.2 23.8
4/26/21 27.0 1501 11.5 0605 19.5 42.8 0059 SW | 234 18.8 23.3
4/25/21 24.9 0321 17.8 0001 48.2 87.0 0431 WNW | 282 22.4 24.0
4/24/21 32.1 0001 23.1 2006 53.0 104.6 2355 SW | 236 25.7 20.1
4/23/21 45.4 1415 31.9 2352 20.9 61.3 2357 SW | 221 32.3 0.7
4/22/21 44.4 1426 31.6 0237 15.8 40.2 1505 WNW | 286 30.2 9.4
4/21/21 43.5 1810 26.8 0606 14.3 47.1 0023 ENE | 62 28.7 8.6
4/20/21 45.3 1405 29.5 2344 16.7 43.1 1011 WSW | 248 32.1 0.0
4/19/21 51.1 1425 39.9 2148 10.7 34.2 1516 SSW | 213 34.6 0.0
4/18/21 52.0 1758 30.1 0608 16.2 49.6 0707 ENE | 76 29.7 10.5
4/17/21 37.1 1748 24.4 0615 32.3 64.7 1040 ENE | 70 25.2 21.3
4/16/21 38.8 1542 26.7 0638 12.3 28.0 1246 ENE | 71 27.4 13.5
4/15/21 36.2 1344 21.5 0504 6.4 23.9 1535 SSW | 201 25.7 17.2
4/14/21 28.6 1440 18.9 0634 8.2 25.0 0119 ESE | 119 22.9 23.9
4/13/21 35.0 1358 21.6 2302 27.7 69.0 0730 SSW | 207 26.0 20.7
4/12/21 48.0 1534 26.9 0710 17.3 33.0 0453 ENE | 75 28.9 12.5
4/11/21 51.4 1358 32.4 2354 10.4 36.4 2317 ENE | 77 30.9 10.4
4/10/21 47.4 1135 31.9 0507 12.7 29.9 1316 WNW | 287 30.1 9.2
4/9/21 43.0 1337 32.7 0520 18.3 34.8 1505 SE | 125 30.5 5.7
4/8/21 40.9 1435 27.7 0206 17.8 36.0 0004 SSW | 211 27.5 11.1
4/7/21 38.0 1434 28.6 2359 33.2 69.9 1359 WSW | 237 28.0 11.8
4/6/21 45.3 1047 31.0 0618 8.8 32.6 1625 SW | 216 30.7 8.2
4/5/21 37.9 1611 25.0 0827 27.9 67.8 0257 WNW | 288 29.0 10.1
Max 63.7 - 44.2 - 53.0 104.6 - - 38.8 24.0
Avg - - - - 20.2 - - - 29.3 -
Min 24.9 - 11.5 - 6.4 23.9 - - 18.8 0.0
Calm: 0.0%
Calm: 0.0%